Time;durP1;ratioP1;P1;durP2;ratioP2;P2;SDS_P1;SDS_P2;PMS_P1;PMS_P2;Temp;Humidity;BMP_temperature;BMP_pressure;BME280_temperature;BME280_humidity;BME280_pressure;Samples;Min_cycle;Max_cycle;Signal;HPM_P1;HPM_P2
2022/05/19 00:01:45;;;;;;;19.63;12.77;;;;;;;22.67;51.35;101677.06;4929747;28;121883;-75
2022/05/19 00:04:13;;;;;;;20.98;13.45;;;;;;;22.67;51.41;101682.47;4928834;28;118760;-75
2022/05/19 00:06:40;;;;;;;20.52;12.07;;;;;;;22.64;51.44;101677.34;4923596;28;120033;-75
2022/05/19 00:09:07;;;;;;;20.55;12.65;;;;;;;22.63;51.62;101670.22;4893650;28;123329;-75
2022/05/19 00:11:35;;;;;;;21.85;12.90;;;;;;;22.61;51.77;101677.59;4893744;28;123839;-75
2022/05/19 00:14:03;;;;;;;20.77;12.70;;;;;;;22.60;51.82;101672.31;4893450;28;119076;-75
2022/05/19 00:16:30;;;;;;;20.33;12.90;;;;;;;22.58;51.88;101671.59;4891044;28;117837;-75
2022/05/19 00:18:57;;;;;;;17.90;12.68;;;;;;;22.56;52.00;101663.63;4908176;28;124288;-75
2022/05/19 00:21:25;;;;;;;22.45;12.70;;;;;;;22.52;52.08;101663.00;4890988;28;123845;-75
2022/05/19 00:23:52;;;;;;;19.83;12.57;;;;;;;22.52;52.11;101667.56;4905250;28;120126;-75
2022/05/19 00:26:19;;;;;;;21.30;13.40;;;;;;;22.51;52.19;101665.84;4913908;28;119107;-75
2022/05/19 00:28:46;;;;;;;24.35;13.38;;;;;;;22.50;52.26;101669.53;4896634;28;123724;-75
2022/05/19 00:31:14;;;;;;;19.08;13.60;;;;;;;22.49;52.25;101667.78;4907151;28;123574;-75
2022/05/19 00:33:42;;;;;;;20.50;13.80;;;;;;;22.50;52.44;101669.53;4908953;28;119083;-75
2022/05/19 00:36:12;;;;;;;24.63;13.70;;;;;;;22.49;52.46;101668.69;4916846;28;119270;-75
2022/05/19 00:38:39;;;;;;;24.88;13.18;;;;;;;22.48;52.42;101655.31;4906310;28;126336;-75
2022/05/19 00:41:08;;;;;;;24.20;14.18;;;;;;;22.47;52.61;101649.06;4910395;28;124208;-75
2022/05/19 00:43:42;;;;;;;21.02;13.68;;;;;;;22.46;52.56;101658.13;4896624;28;119312;-75
2022/05/19 00:46:12;;;;;;;22.20;13.43;;;;;;;22.42;52.51;101645.88;4892138;28;118659;-75
2022/05/19 00:48:47;;;;;;;21.20;14.15;;;;;;;22.40;52.46;101645.13;4904200;28;123263;-75
2022/05/19 00:51:16;;;;;;;20.05;13.63;;;;;;;22.39;52.45;101645.25;4918676;28;122687;-75
2022/05/19 00:53:49;;;;;;;19.83;12.30;;;;;;;22.38;52.43;101627.34;4887316;28;119116;-75
2022/05/19 00:56:28;;;;;;;20.30;13.85;;;;;;;22.35;52.53;101633.84;4921420;28;119035;-75
2022/05/19 00:59:27;;;;;;;19.35;12.85;;;;;;;22.33;52.60;101641.22;4914968;28;122962;-74
2022/05/19 01:01:55;;;;;;;21.73;13.98;;;;;;;22.31;52.59;101633.25;4897841;28;124038;-75
2022/05/19 01:04:38;;;;;;;19.08;13.65;;;;;;;22.30;52.64;101631.56;4907744;28;118490;-75
2022/05/19 01:07:10;;;;;;;19.70;13.13;;;;;;;22.30;52.71;101630.66;4899498;28;118885;-75
2022/05/19 01:09:38;;;;;;;21.95;13.68;;;;;;;22.28;52.61;101620.03;4898314;28;124297;-75
2022/05/19 01:12:07;;;;;;;22.55;14.05;;;;;;;22.26;52.71;101624.66;4902264;28;122965;-75
2022/05/19 01:14:34;;;;;;;21.67;14.13;;;;;;;22.24;52.85;101626.59;4903026;28;118957;-74
2022/05/19 01:17:02;;;;;;;21.33;13.75;;;;;;;22.23;52.75;101627.59;4896690;28;119362;-75
2022/05/19 01:19:40;;;;;;;23.05;14.20;;;;;;;22.22;53.09;101623.16;4905908;28;125207;-75
2022/05/19 01:22:20;;;;;;;23.20;14.55;;;;;;;22.23;53.01;101619.50;4922349;28;123497;-75
2022/05/19 01:25:15;;;;;;;27.25;15.30;;;;;;;22.20;52.96;101614.34;4903043;28;119968;-75
2022/05/19 01:27:44;;;;;;;23.15;14.82;;;;;;;22.18;52.92;101616.31;4890372;28;118163;-75
2022/05/19 01:30:12;;;;;;;25.98;16.00;;;;;;;22.16;52.81;101612.91;4903569;28;124562;-75
2022/05/19 01:32:39;;;;;;;26.35;15.48;;;;;;;22.13;53.33;101607.75;4900734;28;123501;-75
2022/05/19 01:35:07;;;;;;;27.80;16.88;;;;;;;22.12;53.42;101600.66;4912357;28;119121;-75
2022/05/19 01:37:34;;;;;;;25.88;16.48;;;;;;;22.11;53.32;101604.31;4907309;28;118179;-76
2022/05/19 01:40:25;;;;;;;23.70;15.02;;;;;;;22.08;53.51;101588.41;4914190;28;122409;-75
2022/05/19 01:43:05;;;;;;;25.77;16.17;;;;;;;22.04;53.59;101586.91;4919799;28;123836;-75
2022/05/19 01:45:38;;;;;;;25.75;16.67;;;;;;;22.02;53.66;101588.88;4912439;28;119051;-75
2022/05/19 01:48:28;;;;;;;25.70;17.45;;;;;;;21.97;53.63;101587.41;4918699;28;118280;-75
2022/05/19 01:51:10;;;;;;;25.27;16.50;;;;;;;21.93;53.63;101590.50;4904509;28;124485;-75
2022/05/19 01:53:45;;;;;;;28.13;17.27;;;;;;;21.90;53.91;101585.34;4917170;28;124228;-75
2022/05/19 01:56:25;;;;;;;28.02;17.38;;;;;;;21.87;54.01;101586.47;4901506;28;118904;-75
2022/05/19 01:59:10;;;;;;;26.02;17.08;;;;;;;21.85;54.27;101583.03;4892420;28;118688;-76
2022/05/19 02:01:42;;;;;;;26.52;17.50;;;;;;;21.84;54.18;101575.91;4898704;28;124009;-75
2022/05/19 02:04:26;;;;;;;24.33;17.35;;;;;;;21.84;54.29;101578.59;4904938;28;123596;-75
2022/05/19 02:07:05;;;;;;;27.57;18.27;;;;;;;21.84;54.38;101580.47;4911478;28;97143;-75
2022/05/19 02:09:36;;;;;;;25.13;17.27;;;;;;;21.85;54.59;101583.03;4900733;28;119192;-75
2022/05/19 02:12:05;;;;;;;30.50;17.55;;;;;;;21.86;54.38;101568.56;4920953;28;124525;-75
2022/05/19 02:14:39;;;;;;;27.75;17.42;;;;;;;21.87;54.53;101575.69;4921106;28;123183;-75
2022/05/19 02:17:10;;;;;;;25.98;16.98;;;;;;;21.88;54.55;101576.53;4904697;28;118129;-75
2022/05/19 02:19:42;;;;;;;26.02;16.85;;;;;;;21.88;54.59;101577.38;4892418;28;119587;-75
2022/05/19 02:22:13;;;;;;;25.85;16.70;;;;;;;21.88;54.63;101576.53;4893705;28;124982;-75
2022/05/19 02:24:53;;;;;;;24.50;16.63;;;;;;;21.87;54.57;101570.28;4905216;28;123794;-75
2022/05/19 02:27:32;;;;;;;22.67;16.10;;;;;;;21.85;54.56;101577.63;4894736;28;119168;-75
2022/05/19 02:30:07;;;;;;;23.88;16.13;;;;;;;21.85;54.61;101577.63;4888737;28;118692;-75
2022/05/19 02:32:35;;;;;;;27.63;16.60;;;;;;;21.84;54.46;101570.50;4895335;28;124468;-75
2022/05/19 02:35:04;;;;;;;23.45;15.85;;;;;;;21.84;54.67;101575.91;4896356;28;123152;-75
2022/05/19 02:37:33;;;;;;;24.15;16.13;;;;;;;21.83;54.62;101568.81;4903340;28;119177;-75
2022/05/19 02:40:03;;;;;;;23.38;15.82;;;;;;;21.83;54.56;101568.81;4892594;28;119260;-76
2022/05/19 02:42:31;;;;;;;24.15;16.10;;;;;;;21.82;54.49;101577.88;4921283;28;123652;-75
2022/05/19 02:44:58;;;;;;;23.90;15.32;;;;;;;21.81;54.51;101570.75;4904425;28;123099;-76
2022/05/19 02:47:25;;;;;;;24.63;16.70;;;;;;;21.79;54.47;101567.31;4887750;28;118538;-76
2022/05/19 02:49:53;;;;;;;21.27;14.88;;;;;;;21.79;54.59;101572.72;4901279;28;118258;-76
2022/05/19 02:52:20;;;;;;;26.05;15.63;;;;;;;21.78;54.67;101568.31;4906187;28;124349;-75
2022/05/19 02:54:47;;;;;;;22.63;15.18;;;;;;;21.79;54.43;101572.72;4906088;28;124325;-76
2022/05/19 02:57:14;;;;;;;20.40;14.48;;;;;;;21.79;54.50;101572.72;4888932;28;120355;-76
2022/05/19 02:59:42;;;;;;;21.08;15.13;;;;;;;21.78;54.45;101577.25;4919530;28;119427;-76
2022/05/19 03:02:10;;;;;;;24.38;14.95;;;;;;;21.78;54.53;101581.81;4889058;28;123820;-76
2022/05/19 03:04:37;;;;;;;21.95;14.43;;;;;;;21.77;54.42;101580.09;4890374;28;123955;-76
2022/05/19 03:07:06;;;;;;;21.60;14.20;;;;;;;21.75;54.31;101587.44;4913487;28;119125;-76
2022/05/19 03:09:34;;;;;;;23.90;14.65;;;;;;;21.73;54.28;101589.41;4909645;28;118333;-76
2022/05/19 03:12:01;;;;;;;21.38;14.50;;;;;;;21.70;54.28;101584.25;4891885;28;123799;-76
2022/05/19 03:14:30;;;;;;;23.30;14.68;;;;;;;21.68;54.24;101597.00;4895635;28;123886;-76
2022/05/19 03:16:57;;;;;;;20.23;14.55;;;;;;;21.64;54.22;101600.94;4871860;28;119271;-76
2022/05/19 03:19:25;;;;;;;20.55;14.85;;;;;;;21.62;54.47;101592.97;4890292;28;118872;-76
2022/05/19 03:21:52;;;;;;;21.30;14.65;;;;;;;21.63;54.50;101596.53;4896556;28;123224;-76
2022/05/19 03:24:19;;;;;;;20.77;14.10;;;;;;;21.62;54.43;101597.50;4889107;28;123822;-76
2022/05/19 03:26:46;;;;;;;20.55;14.45;;;;;;;21.62;54.61;101602.88;4910052;28;117690;-76
2022/05/19 03:29:13;;;;;;;18.83;13.85;;;;;;;21.63;54.51;101610.00;4893584;28;118608;-76
2022/05/19 03:31:40;;;;;;;21.45;14.65;;;;;;;21.63;54.61;101615.41;4895369;28;124732;-76
2022/05/19 03:34:07;;;;;;;22.13;14.02;;;;;;;21.62;54.51;101641.47;4913366;28;123362;-76
2022/05/19 03:36:34;;;;;;;23.23;15.80;;;;;;;21.58;54.65;101731.66;4893277;28;119100;-75
2022/05/19 03:39:01;;;;;;;17.50;12.80;;;;;;;21.49;54.99;101721.59;4895295;28;119190;-77
2022/05/19 03:41:28;;;;;;;16.23;11.65;;;;;;;21.46;55.17;101706.53;4918068;28;123749;-76
2022/05/19 03:43:55;;;;;;;14.85;10.57;;;;;;;21.52;55.30;101726.75;4891302;28;124963;-76
2022/05/19 03:46:22;;;;;;;12.07;8.82;;;;;;;21.62;54.96;101743.06;4905038;28;120857;-76
2022/05/19 03:48:49;;;;;;;13.18;7.85;;;;;;;21.74;54.84;101752.94;4891556;28;120075;-77
2022/05/19 03:51:26;;;;;;;13.43;8.27;;;;;;;21.89;54.72;101719.34;4887183;28;124127;-76
2022/05/19 03:53:54;;;;;;;13.40;8.77;;;;;;;22.05;54.49;101718.13;4887981;28;124262;-77
2022/05/19 03:56:22;;;;;;;13.00;9.13;;;;;;;22.19;54.11;101750.28;4888318;28;119434;-76
2022/05/19 03:58:50;;;;;;;16.45;9.75;;;;;;;22.30;54.03;101733.22;4891533;28;119114;-76
2022/05/19 04:01:19;;;;;;;14.75;9.68;;;;;;;22.39;53.74;101732.50;4888434;28;124684;-76
2022/05/19 04:03:47;;;;;;;15.23;10.07;;;;;;;22.48;53.64;101720.09;4898335;28;123663;-76
2022/05/19 04:06:14;;;;;;;16.58;10.35;;;;;;;22.56;53.62;101728.41;4892250;28;118687;-76
2022/05/19 04:08:42;;;;;;;13.38;10.10;;;;;;;22.64;53.43;101731.38;4921057;28;117074;-76
2022/05/19 04:11:09;;;;;;;16.70;10.55;;;;;;;22.70;53.39;101730.84;4893284;28;123892;-76
2022/05/19 04:13:37;;;;;;;15.75;10.77;;;;;;;22.77;53.08;101746.53;4906179;28;122162;-76
2022/05/19 04:16:04;;;;;;;16.40;10.48;;;;;;;22.81;53.47;101750.69;4908258;28;118376;-76
2022/05/19 04:18:35;;;;;;;15.60;10.70;;;;;;;22.87;53.06;101752.91;4917034;28;117285;-76
2022/05/19 04:21:03;;;;;;;18.15;10.75;;;;;;;22.91;53.12;101749.81;4893789;28;125639;-76
2022/05/19 04:23:30;;;;;;;16.02;10.45;;;;;;;22.97;52.99;101744.91;4896681;28;123304;-76
2022/05/19 04:25:58;;;;;;;13.15;10.52;;;;;;;23.01;52.91;101755.31;4899287;28;119489;-76
2022/05/19 04:28:25;;;;;;;15.23;10.45;;;;;;;23.04;52.81;101733.47;4906134;28;119780;-76
2022/05/19 04:30:52;;;;;;;15.40;10.85;;;;;;;23.05;52.93;101729.78;4896019;28;123607;-76
2022/05/19 04:33:19;;;;;;;18.13;11.45;;;;;;;23.09;52.89;101731.25;4905934;28;123680;-76
2022/05/19 04:35:46;;;;;;;16.70;10.93;;;;;;;23.10;52.75;101732.94;4908697;28;119318;-76
2022/05/19 04:38:16;;;;;;;15.50;11.15;;;;;;;23.12;52.73;101719.31;4896206;28;120531;-76
2022/05/19 04:40:49;;;;;;;17.17;11.68;;;;;;;23.12;52.85;101730.97;4890992;28;124792;-76
2022/05/19 04:43:21;;;;;;;16.38;10.75;;;;;;;23.13;52.98;101727.28;4903645;28;122919;-76
2022/05/19 04:45:49;;;;;;;15.45;10.98;;;;;;;23.17;52.97;101732.44;4892458;28;118606;-76
2022/05/19 04:48:17;;;;;;;17.58;11.20;;;;;;;23.17;52.88;101735.13;4895186;28;119405;-76
2022/05/19 04:50:44;;;;;;;14.13;10.75;;;;;;;23.17;52.87;101736.00;4894609;28;124595;-76
2022/05/19 04:53:11;;;;;;;14.95;10.98;;;;;;;23.20;53.11;101734.88;4908659;28;124694;-76
2022/05/19 04:55:39;;;;;;;14.65;10.40;;;;;;;23.24;52.94;101728.22;4908223;28;118933;-76
2022/05/19 04:58:07;;;;;;;16.17;11.80;;;;;;;23.25;53.11;101720.00;4893925;28;118919;-76
2022/05/19 05:00:35;;;;;;;14.93;10.20;;;;;;;23.26;53.08;101716.31;4891103;28;122347;-76
2022/05/19 05:03:04;;;;;;;15.68;11.15;;;;;;;23.32;53.27;101720.34;4893629;28;123911;-76
2022/05/19 05:05:31;;;;;;;17.02;10.60;;;;;;;23.35;53.24;101730.88;4914180;28;118782;-75
2022/05/19 05:07:59;;;;;;;16.08;11.02;;;;;;;23.39;53.30;101726.91;4914342;28;119893;-75
2022/05/19 05:10:26;;;;;;;14.82;11.40;;;;;;;23.44;53.45;101735.50;4910816;28;123551;-75
2022/05/19 05:12:53;;;;;;;15.48;11.00;;;;;;;23.48;53.37;101734.22;4889494;28;123746;-75
2022/05/19 05:15:20;;;;;;;16.65;11.73;;;;;;;23.52;53.16;101716.75;4905668;28;118239;-75
2022/05/19 05:17:47;;;;;;;13.07;10.65;;;;;;;23.56;53.19;101732.72;4911987;28;117066;-75
2022/05/19 05:20:14;;;;;;;14.45;10.23;;;;;;;23.61;53.30;101719.66;4904357;28;123861;-75
2022/05/19 05:22:41;;;;;;;15.75;10.48;;;;;;;23.64;53.04;101714.84;4895163;28;124688;-75
2022/05/19 05:25:13;;;;;;;14.80;10.68;;;;;;;23.70;53.16;101724.28;4897613;28;119823;-75
2022/05/19 05:27:42;;;;;;;13.70;10.77;;;;;;;23.75;53.00;101727.41;4906404;28;120222;-75
2022/05/19 05:30:11;;;;;;;18.02;9.82;;;;;;;23.80;52.64;101719.81;4906496;28;125404;-76
2022/05/19 05:32:38;;;;;;;13.43;9.30;;;;;;;23.85;52.66;101722.13;4907457;28;123247;-75
2022/05/19 05:35:08;;;;;;;11.70;8.20;;;;;;;23.88;52.66;101722.72;4896310;28;119270;-75
2022/05/19 05:37:36;;;;;;;8.52;6.60;;;;;;;23.94;52.46;101725.84;4894885;28;119527;-75
2022/05/19 05:40:07;;;;;;;9.32;7.03;;;;;;;23.99;52.33;101723.59;4895216;28;124102;-76
2022/05/19 05:42:34;;;;;;;8.50;6.63;;;;;;;24.03;52.33;101719.63;4895765;28;123588;-76
2022/05/19 05:45:02;;;;;;;7.05;4.90;;;;;;;24.09;52.11;101713.66;4905118;28;118541;-76
2022/05/19 05:47:30;;;;;;;6.90;5.35;;;;;;;24.13;51.79;101709.72;4914599;28;118528;-76
2022/05/19 05:50:04;;;;;;;8.27;6.38;;;;;;;24.16;51.73;101698.59;4891200;28;124988;-75
2022/05/19 05:52:31;;;;;;;10.77;7.60;;;;;;;24.20;51.80;101708.16;4923295;28;123508;-74
2022/05/19 05:55:00;;;;;;;8.95;6.88;;;;;;;24.23;51.46;101699.75;4907816;28;118836;-75
2022/05/19 05:57:28;;;;;;;8.25;6.65;;;;;;;24.25;51.63;101683.38;4892546;28;119212;-75
2022/05/19 05:59:56;;;;;;;6.90;5.28;;;;;;;24.27;51.55;101690.38;4906433;28;123821;-75
2022/05/19 06:02:23;;;;;;;5.78;4.57;;;;;;;24.28;51.34;101686.69;4907296;28;123199;-76
2022/05/19 06:04:50;;;;;;;5.90;4.50;;;;;;;24.29;51.28;101693.78;4904935;28;119481;-76
2022/05/19 06:07:17;;;;;;;6.07;4.90;;;;;;;24.31;51.10;101692.81;4905248;28;119535;-76
2022/05/19 06:09:44;;;;;;;6.95;4.90;;;;;;;24.30;51.21;101710.91;4906936;28;122965;-75
2022/05/19 06:12:12;;;;;;;5.78;4.30;;;;;;;24.31;51.17;101706.34;4923050;28;122890;-75
2022/05/19 06:14:39;;;;;;;7.82;5.18;;;;;;;24.32;50.96;101680.97;4891098;28;120269;-76
2022/05/19 06:17:07;;;;;;;6.72;5.00;;;;;;;24.27;51.18;101701.19;4899137;28;120028;-75
2022/05/19 06:19:34;;;;;;;6.22;4.82;;;;;;;24.23;51.21;101667.28;4891561;28;125141;-76
2022/05/19 06:22:01;;;;;;;6.10;4.70;;;;;;;24.18;51.28;101630.78;4896144;28;123276;-75
2022/05/19 06:24:29;;;;;;;6.50;4.38;;;;;;;24.08;51.26;101595.59;4895148;28;119620;-76
2022/05/19 06:26:56;;;;;;;8.35;5.28;;;;;;;23.99;51.72;101539.59;4889577;28;119834;-76
2022/05/19 06:29:23;;;;;;;6.63;4.65;;;;;;;23.90;51.75;101555.69;4903864;28;123998;-76
2022/05/19 06:31:50;;;;;;;5.35;4.22;;;;;;;23.81;51.88;101564.63;4889159;28;123705;-76
2022/05/19 06:34:17;;;;;;;4.90;3.90;;;;;;;23.75;51.93;101585.91;4892059;28;119373;-76
2022/05/19 06:36:47;;;;;;;5.50;3.92;;;;;;;23.71;52.23;101617.78;4912025;28;119199;-76
2022/05/19 06:39:18;;;;;;;6.47;3.90;;;;;;;23.72;52.26;101641.16;4906328;28;124888;-76
2022/05/19 06:42:00;;;;;;;6.57;3.90;;;;;;;23.72;52.31;101651.97;4919324;28;122711;-76
2022/05/19 06:44:33;;;;;;;7.82;4.10;;;;;;;23.75;52.41;101646.28;4893058;28;119067;-77
2022/05/19 06:47:01;;;;;;;5.25;3.70;;;;;;;23.80;52.55;101665.69;4904029;28;117129;-76
2022/05/19 06:49:29;;;;;;;6.63;3.60;;;;;;;23.83;52.64;101649.19;4919156;28;123104;-77
2022/05/19 06:51:56;;;;;;;5.63;4.53;;;;;;;23.84;52.77;101640.06;4893965;28;124605;-77
2022/05/19 06:54:23;;;;;;;5.45;4.07;;;;;;;23.88;52.84;101625.31;4903651;28;118439;-77
2022/05/19 06:56:49;;;;;;;5.78;4.20;;;;;;;23.88;52.90;101576.59;4904067;28;118075;-76
2022/05/19 06:59:16;;;;;;;8.10;4.85;;;;;;;23.87;53.04;101618.19;4895062;28;124941;-76
2022/05/19 07:01:45;;;;;;;7.57;5.22;;;;;;;23.82;53.22;101593.38;4904638;28;123984;-77
2022/05/19 07:04:14;;;;;;;7.32;4.70;;;;;;;23.80;53.29;101611.59;4905033;28;119463;-77
2022/05/19 07:06:42;;;;;;;7.60;4.88;;;;;;;23.73;53.58;101615.78;4905442;28;119905;-77
2022/05/19 07:09:11;;;;;;;9.55;5.50;;;;;;;23.67;53.67;101621.75;4906191;28;124169;-77
2022/05/19 07:11:38;;;;;;;6.78;5.00;;;;;;;23.65;53.74;101623.75;4903861;28;122802;-77
2022/05/19 07:14:07;;;;;;;7.75;4.93;;;;;;;23.65;54.13;101626.44;4902086;28;117542;-77
2022/05/19 07:16:35;;;;;;;6.75;5.40;;;;;;;23.67;54.27;101627.16;4900463;28;117325;-77
2022/05/19 07:21:49;;;;;;;6.93;5.53;;;;;;;23.68;54.30;101618.06;4911464;28;124365;-77
2022/05/19 07:24:19;;;;;;;6.88;5.72;;;;;;;23.69;54.62;101625.19;4934578;28;119214;-76
2022/05/19 07:26:49;;;;;;;8.65;6.03;;;;;;;23.69;54.46;101630.59;4944386;28;118673;-76
2022/05/19 07:29:18;;;;;;;8.40;5.93;;;;;;;23.69;54.36;101608.94;4899981;28;124504;-77
2022/05/19 07:31:49;;;;;;;10.23;7.03;;;;;;;23.71;54.64;101605.13;4905030;28;124031;-77
2022/05/19 07:34:21;;;;;;;9.88;6.50;;;;;;;23.78;54.77;101599.16;4903977;28;118914;-76
2022/05/19 07:36:49;;;;;;;10.13;6.80;;;;;;;23.84;54.71;101585.13;4909526;28;120792;-77
2022/05/19 07:39:16;;;;;;;9.40;7.13;;;;;;;23.92;54.82;101587.13;4898937;28;123681;-77
2022/05/19 07:41:48;;;;;;;9.85;6.97;;;;;;;23.97;54.80;101568.66;4896430;28;124076;-76
2022/05/19 07:44:16;;;;;;;9.73;6.75;;;;;;;24.00;54.93;101562.97;4877250;28;121487;-76
2022/05/19 07:46:43;;;;;;;8.80;5.97;;;;;;;24.07;54.83;101564.09;4898736;28;119082;-76
2022/05/19 07:49:11;;;;;;;9.00;6.75;;;;;;;24.12;54.66;101572.66;4898056;28;124830;-76
2022/05/19 07:51:40;;;;;;;9.38;6.78;;;;;;;24.18;54.68;101555.00;4910386;28;123802;-76
2022/05/19 07:54:15;;;;;;;8.43;6.60;;;;;;;24.23;54.71;101579.81;4907241;28;120135;-77
2022/05/19 07:56:42;;;;;;;;;;;;;;;24.26;54.31;101602.03;4920401;28;118205;-77
2022/05/19 07:59:11;;;;;;;10.90;7.38;;;;;;;24.35;54.48;101604.88;4903199;28;123227;-77
2022/05/19 08:01:40;;;;;;;10.85;7.50;;;;;;;24.40;54.64;101619.72;4888273;28;125106;-77
2022/05/19 08:04:08;;;;;;;11.68;7.60;;;;;;;24.45;54.87;101622.03;4901564;28;119722;-77
2022/05/19 08:06:36;;;;;;;9.00;7.40;;;;;;;24.53;55.04;101624.06;4906369;28;118859;-77
2022/05/19 08:11:51;;;;;;;10.40;7.03;;;;;;;24.66;54.62;101617.34;4907698;28;122299;-77
2022/05/19 08:17:30;;;;;;;10.65;6.38;;;;;;;24.78;54.38;101606.38;4890163;28;118437;-77
2022/05/19 08:19:58;;;;;;;8.93;6.43;;;;;;;24.86;54.29;101603.78;4892855;28;123845;-77
2022/05/19 08:22:26;;;;;;;6.55;5.40;;;;;;;24.95;54.16;101597.50;4911452;28;124041;-77
2022/05/19 08:24:53;;;;;;;7.85;5.80;;;;;;;25.08;53.90;101583.66;4910770;28;119217;-76
2022/05/19 08:27:20;;;;;;;7.78;6.30;;;;;;;25.23;53.58;101584.91;4926668;28;117988;-78
2022/05/19 08:29:47;;;;;;;8.35;6.05;;;;;;;25.38;53.38;101577.16;4911525;28;124584;-77
2022/05/19 08:32:14;;;;;;;8.05;5.38;;;;;;;25.54;52.83;101575.69;4894926;28;123578;-77
2022/05/19 08:34:41;;;;;;;7.97;5.18;;;;;;;25.68;52.61;101572.47;4895314;28;118581;-77
2022/05/19 08:37:08;;;;;;;9.55;6.55;;;;;;;25.88;52.94;101572.38;4895847;28;119004;-77
2022/05/19 08:39:36;;;;;;;9.82;6.85;;;;;;;26.06;52.02;101573.28;4890629;28;124420;-77
2022/05/19 08:42:07;;;;;;;8.65;6.40;;;;;;;26.23;51.54;101577.88;4922611;28;123761;-78
2022/05/19 08:44:40;;;;;;;9.38;6.07;;;;;;;26.38;50.95;101593.66;4889984;28;120508;-79
2022/05/19 08:47:13;;;;;;;6.82;5.43;;;;;;;26.54;51.06;101596.53;4873161;28;120135;-76
2022/05/19 08:49:57;;;;;;;6.75;4.57;;;;;;;26.74;50.25;101590.97;4891012;28;123247;-78
2022/05/19 08:52:27;;;;;;;6.90;4.50;;;;;;;26.90;49.51;101591.09;4889585;28;123763;-76
2022/05/19 08:54:59;;;;;;;6.28;4.30;;;;;;;27.05;48.95;101585.06;4906311;28;119396;-77
2022/05/19 08:57:35;;;;;;;7.78;4.28;;;;;;;27.20;48.75;101591.66;4907667;28;117824;-77
2022/05/19 09:00:06;;;;;;;4.68;3.78;;;;;;;27.36;48.78;101586.31;4905793;28;123673;-76
2022/05/19 09:02:41;;;;;;;5.78;3.95;;;;;;;27.51;49.15;101588.44;4892712;28;124526;-76
2022/05/19 09:05:29;;;;;;;6.22;4.00;;;;;;;27.66;47.64;101596.88;4907182;28;120027;-77
2022/05/19 09:08:15;;;;;;;4.50;3.60;;;;;;;27.76;47.63;101593.00;4889330;28;117889;-77
2022/05/19 09:11:04;;;;;;;6.90;3.50;;;;;;;27.90;47.94;101582.53;4906133;28;123918;-77
2022/05/19 09:13:41;;;;;;;4.85;3.50;;;;;;;28.07;47.55;101578.00;4905922;28;123273;-77
2022/05/19 09:16:15;;;;;;;5.78;3.30;;;;;;;28.22;46.78;101575.44;4926379;28;118375;-77
2022/05/19 09:18:49;;;;;;;4.85;3.63;;;;;;;28.36;46.56;101574.78;4908907;28;119071;-77
2022/05/19 09:21:16;;;;;;;5.00;3.53;;;;;;;28.49;46.32;101564.25;4908889;28;122878;-77
2022/05/19 09:23:43;;;;;;;4.53;3.90;;;;;;;28.66;45.78;101550.66;4911191;28;124515;-77
2022/05/19 09:26:42;;;;;;;3.83;3.15;;;;;;;28.82;45.48;101553.38;4911089;28;119117;-77
2022/05/19 09:29:13;;;;;;;5.13;3.40;;;;;;;28.96;45.21;101549.09;4897619;28;119132;-77
2022/05/19 09:31:53;;;;;;;5.25;3.10;;;;;;;29.10;44.94;101558.44;4893349;28;123206;-77
2022/05/19 09:34:27;;;;;;;4.13;3.30;;;;;;;29.25;44.05;101551.28;4909602;28;122979;-77
2022/05/19 09:37:04;;;;;;;4.47;3.07;;;;;;;29.33;44.19;101549.53;4908332;28;120261;-77
2022/05/19 09:39:44;;;;;;;4.60;2.90;;;;;;;29.39;43.99;101546.13;4911954;28;120642;-77
2022/05/19 09:42:16;;;;;;;4.50;2.90;;;;;;;29.46;43.51;101547.09;4922882;28;124418;-76
2022/05/19 09:44:50;;;;;;;4.80;3.28;;;;;;;29.50;43.15;101543.00;4900198;28;122954;-77
2022/05/19 09:47:24;;;;;;;4.45;3.17;;;;;;;29.54;43.12;101549.81;4892787;28;119470;-77
2022/05/19 09:49:53;;;;;;;;;;;;;;;29.60;44.29;101550.97;4893574;28;117898;-77
2022/05/19 09:52:26;;;;;;;3.85;2.90;;;;;;;29.75;43.40;101542.94;4925657;28;123827;-77
2022/05/19 09:54:57;;;;;;;5.28;3.03;;;;;;;29.88;43.11;101545.94;4893829;28;123159;-77
2022/05/19 09:57:51;;;;;;;7.13;3.00;;;;;;;30.01;42.78;101540.72;4910298;28;117975;-77
2022/05/19 10:00:49;;;;;;;4.72;3.08;;;;;;;30.15;42.45;101540.97;4887714;28;118086;-75
2022/05/19 10:03:36;;;;;;;5.05;3.17;;;;;;;30.26;42.16;101544.13;4924427;28;123267;-76
2022/05/19 10:06:14;;;;;;;5.28;2.83;;;;;;;30.36;41.69;101532.97;4908132;28;123951;-76
2022/05/19 10:08:43;;;;;;;4.32;3.22;;;;;;;30.45;41.59;101537.34;4909253;28;119135;-76
2022/05/19 10:11:14;;;;;;;4.20;3.30;;;;;;;30.51;41.34;101534.91;4909814;28;119232;-76
2022/05/19 10:13:51;;;;;;;3.92;3.05;;;;;;;30.58;41.29;101524.94;4907853;28;124555;-76
2022/05/19 10:16:54;;;;;;;4.60;3.20;;;;;;;30.64;40.69;101530.50;4922337;28;124533;-76
2022/05/19 10:19:51;;;;;;;4.72;3.20;;;;;;;30.70;41.12;101520.72;4910080;28;119494;-76
2022/05/19 10:22:37;;;;;;;7.43;3.53;;;;;;;30.79;41.15;101505.94;4892875;28;118141;-76
2022/05/19 10:25:29;;;;;;;5.63;2.95;;;;;;;30.90;40.65;101490.13;4927668;28;124251;-76
2022/05/19 10:31:44;;;;;;;4.57;2.33;;;;;;;31.14;39.98;101470.72;4882710;28;119821;-75
2022/05/19 10:34:37;;;;;;;4.13;2.70;;;;;;;31.29;39.74;101467.09;4867497;28;120321;-77
2022/05/19 10:37:31;;;;;;;2.97;2.08;;;;;;;31.42;39.36;101465.38;4901321;28;123977;-76
2022/05/19 10:40:12;;;;;;;4.38;2.50;;;;;;;31.54;38.93;101459.44;4921442;28;123875;-77
2022/05/19 10:43:03;;;;;;;3.53;2.20;;;;;;;31.62;38.41;101465.63;4910534;28;119141;-78
2022/05/19 10:45:39;;;;;;;3.35;2.67;;;;;;;31.70;38.31;101461.94;4905669;28;118414;-76
2022/05/19 10:48:44;;;;;;;3.40;2.33;;;;;;;31.81;37.89;101460.56;4920393;28;123152;-77
2022/05/19 10:51:16;;;;;;;3.30;2.55;;;;;;;31.85;37.24;101461.88;4924281;28;124012;-77
2022/05/19 10:54:22;;;;;;;6.43;2.55;;;;;;;31.88;37.59;101466.97;4907808;28;118613;-76
2022/05/19 10:57:01;;;;;;;;;;;;;;;31.86;38.60;101469.06;4909741;28;118070;-77
2022/05/19 10:59:51;;;;;;;5.65;2.50;;;;;;;31.89;37.48;101474.16;4906336;28;124178;-77
2022/05/19 11:02:30;;;;;;;5.22;2.83;;;;;;;31.87;37.14;101478.97;4913445;28;123205;-76
2022/05/19 11:05:16;;;;;;;4.88;2.53;;;;;;;31.89;37.26;101479.66;4903978;28;118271;-77
2022/05/19 11:07:56;;;;;;;4.03;2.47;;;;;;;31.93;36.84;101467.25;4905557;28;118405;-77
2022/05/19 11:10:38;;;;;;;4.28;2.78;;;;;;;31.96;36.69;101458.63;4904279;28;122195;-77
2022/05/19 11:13:27;;;;;;;4.00;2.90;;;;;;;31.99;36.56;101462.88;4903749;28;124218;-77
2022/05/19 11:16:06;;;;;;;5.03;2.70;;;;;;;31.98;36.42;101456.53;4907130;28;118561;-77
2022/05/19 11:18:55;;;;;;;5.63;2.90;;;;;;;31.97;36.27;101457.59;4889255;28;118481;-77
2022/05/19 11:21:41;;;;;;;4.15;2.90;;;;;;;31.92;36.50;101454.56;4919274;28;123223;-77
2022/05/19 11:24:22;;;;;;;6.13;2.80;;;;;;;31.85;36.34;101450.06;4920545;28;123960;-76
2022/05/19 11:26:57;;;;;;;3.83;2.65;;;;;;;31.79;36.19;101438.00;4906669;28;118971;-75
2022/05/19 11:29:40;;;;;;;5.88;2.75;;;;;;;31.74;36.88;101427.66;4893755;28;120184;-77
2022/05/19 11:32:18;;;;;;;4.47;2.72;;;;;;;31.70;36.45;101437.28;4910330;28;123662;-77
2022/05/19 11:34:53;;;;;;;4.40;2.90;;;;;;;31.63;36.44;101437.22;4910308;28;124389;-77
2022/05/19 11:37:32;;;;;;;4.43;2.88;;;;;;;31.57;36.32;101446.22;4909214;28;118436;-77
2022/05/19 11:40:12;;;;;;;3.40;2.75;;;;;;;31.54;36.60;101449.34;4886944;28;117285;-77
2022/05/19 11:43:07;;;;;;;6.55;2.75;;;;;;;31.51;36.95;101460.66;4903281;28;123656;-77
2022/05/19 11:45:42;;;;;;;5.25;2.80;;;;;;;31.47;36.71;101451.13;4891796;28;122282;-77